createdAt,value
2022-08-17T00:02:26.233Z,100749.06
2022-08-17T00:05:33.178Z,100759.88
2022-08-17T00:08:38.043Z,100755.03
2022-08-17T00:11:42.758Z,100748.22
2022-08-17T00:15:10.424Z,100749.66
2022-08-17T00:19:04.185Z,100751.38
2022-08-17T00:22:29.498Z,100757.38
2022-08-17T00:25:03.331Z,100748.94
2022-08-17T00:28:06.106Z,100755.53
2022-08-17T00:31:10.865Z,100749.72
2022-08-17T00:34:13.462Z,100754.88
2022-08-17T00:37:17.432Z,100754.81
2022-08-17T00:40:20.968Z,100754.41
2022-08-17T00:43:31.753Z,100750.13
2022-08-17T00:46:37.063Z,100747.72
2022-08-17T00:49:39.605Z,100742.47
2022-08-17T00:52:55.543Z,100744.97
2022-08-17T00:55:59.900Z,100751.13
2022-08-17T00:59:04.928Z,100748.09
2022-08-17T01:02:10.632Z,100745.72
2022-08-17T01:05:18.608Z,100751.94
2022-08-17T01:08:27.085Z,100750.56
2022-08-17T01:11:31.950Z,100752.97
2022-08-17T01:14:34.571Z,100759.59
2022-08-17T01:17:37.183Z,100748.03
2022-08-17T01:20:48.646Z,100756.03
2022-08-17T01:23:52.915Z,100760.78
2022-08-17T01:26:56.583Z,100760.31
2022-08-17T01:30:04.501Z,100759.44
2022-08-17T01:33:27.112Z,100765.53
2022-08-17T01:36:29.776Z,100771.06
2022-08-17T01:39:36.604Z,100769.97
2022-08-17T01:42:45.795Z,100771.50
2022-08-17T01:46:03.794Z,100761.91
2022-08-17T01:49:07.965Z,100772.78
2022-08-17T01:52:12.994Z,100764.38
2022-08-17T01:55:25.895Z,100768.06
2022-08-17T01:58:29.938Z,100768.91
2022-08-17T02:01:34.602Z,100769.88
2022-08-17T02:04:37.307Z,100765.47
2022-08-17T02:07:58.642Z,100764.63
2022-08-17T02:11:06.297Z,100762.91
2022-08-17T02:14:14.893Z,100760.22
2022-08-17T02:17:17.503Z,100773.78
2022-08-17T02:20:41.513Z,100775.13
2022-08-17T02:23:47.422Z,100773.44
2022-08-17T02:26:51.611Z,100777.13
2022-08-17T02:29:54.221Z,100773.81
2022-08-17T02:32:57.357Z,100769.81
2022-08-17T02:36:00.104Z,100769.19
2022-08-17T02:39:03.896Z,100763.44
2022-08-17T02:42:08.018Z,100767.22
2022-08-17T02:45:14.666Z,100762.47
2022-08-17T02:48:17.287Z,100767.34
2022-08-17T02:51:33.544Z,100759.28
2022-08-17T02:54:40.471Z,100762.47
2022-08-17T02:57:46.228Z,100754.88
2022-08-17T03:00:48.902Z,100762.97
2022-08-17T03:03:51.574Z,100761.00
2022-08-17T03:06:54.197Z,100770.66
2022-08-17T03:09:56.822Z,100763.69
2022-08-17T03:13:01.630Z,100762.47
2022-08-17T03:16:04.666Z,100760.00
2022-08-17T03:19:07.256Z,100754.38
2022-08-17T03:22:35.939Z,100759.63
2022-08-17T03:25:35.123Z,100757.31
2022-08-17T03:28:39.543Z,100763.09
2022-08-17T03:31:42.159Z,100761.38
2022-08-17T03:34:44.795Z,100763.22
2022-08-17T03:37:47.826Z,100760.03
2022-08-17T03:41:03.227Z,100771.25
2022-08-17T03:44:07.233Z,100761.75
2022-08-17T03:47:27.146Z,100770.03
2022-08-17T03:50:47.320Z,100774.41
2022-08-17T03:54:09.957Z,100768.97
2022-08-17T03:57:13.262Z,100767.72
2022-08-17T04:00:17.756Z,100766.75
2022-08-17T04:03:20.304Z,100761.75
2022-08-17T04:06:22.922Z,100774.34
2022-08-17T04:09:25.555Z,100778.25
2022-08-17T04:12:30.793Z,100778.75
2022-08-17T04:15:35.098Z,100784.75
2022-08-17T04:18:37.742Z,100777.13
2022-08-17T04:21:40.437Z,100779.81
2022-08-17T04:24:43.019Z,100784.91
2022-08-17T04:27:45.615Z,100785.91
2022-08-17T04:30:49.595Z,100788.97
2022-08-17T04:33:52.331Z,100791.97
2022-08-17T04:36:54.944Z,100787.16
2022-08-17T04:40:11.528Z,100782.50
2022-08-17T04:43:16.371Z,100791.25
2022-08-17T04:46:26.071Z,100788.06
2022-08-17T04:49:28.796Z,100793.22
2022-08-17T04:52:43.466Z,100794.97
2022-08-17T04:55:46.777Z,100796.28
2022-08-17T04:58:51.364Z,100800.22
2022-08-17T05:01:55.642Z,100793.63
2022-08-17T05:04:58.278Z,100793.50
2022-08-17T05:08:03.525Z,100798.38
2022-08-17T05:11:08.235Z,100792.75
2022-08-17T05:14:10.863Z,100792.16
2022-08-17T05:17:14.970Z,100795.97
2022-08-17T05:20:17.795Z,100803.31
2022-08-17T05:23:22.676Z,100801.16
2022-08-17T05:26:27.410Z,100805.06
2022-08-17T05:29:35.575Z,100810.66
2022-08-17T05:32:40.478Z,100813.75
2022-08-17T05:35:46.907Z,100817.88
2022-08-17T05:38:50.523Z,100810.16
2022-08-17T05:41:53.092Z,100811.63
2022-08-17T05:44:58.856Z,100822.63
2022-08-17T05:48:02.900Z,100818.13
2022-08-17T05:51:22.586Z,100818.50
2022-08-17T05:54:35.246Z,100822.78
2022-08-17T05:57:52.940Z,100821.69
2022-08-17T06:01:04.351Z,100823.25
2022-08-17T06:04:17.462Z,100817.69
2022-08-17T06:07:26.408Z,100816.41
2022-08-17T06:10:36.031Z,100813.91
2022-08-17T06:13:57.561Z,100820.81
2022-08-17T06:17:04.171Z,100821.34
2022-08-17T06:20:12.243Z,100825.28
2022-08-17T06:23:21.596Z,100820.41
2022-08-17T06:26:30.294Z,100825.06
2022-08-17T06:29:50.822Z,100827.94
2022-08-17T06:32:56.549Z,100822.72
2022-08-17T06:36:11.271Z,100833.84
2022-08-17T06:39:31.264Z,100832.72
2022-08-17T06:43:04.966Z,100833.88
2022-08-17T06:46:11.331Z,100836.22
2022-08-17T06:49:19.793Z,100835.09
2022-08-17T06:52:42.216Z,100831.56
2022-08-17T06:55:58.006Z,100838.13
2022-08-17T06:59:02.280Z,100841.13
2022-08-17T07:02:09.549Z,100846.84
2022-08-17T07:05:14.188Z,100848.44
2022-08-17T07:08:29.342Z,100838.38
2022-08-17T07:11:39.423Z,100838.66
2022-08-17T07:14:51.666Z,100823.25
2022-08-17T07:17:54.362Z,100827.41
2022-08-17T07:21:03.698Z,100831.94
2022-08-17T07:24:30.254Z,100838.66
2022-08-17T07:27:38.797Z,100839.72
2022-08-17T07:30:48.875Z,100840.59
2022-08-17T07:34:06.701Z,100841.06
2022-08-17T07:37:09.302Z,100844.88
2022-08-17T07:40:29.851Z,100837.84
2022-08-17T07:43:34.884Z,100833.66
2022-08-17T07:47:09.669Z,100834.22
2022-08-17T07:50:27.109Z,100834.59
2022-08-17T07:53:31.157Z,100831.44
2022-08-17T07:56:40.993Z,100828.19
2022-08-17T08:00:04.048Z,100840.50
2022-08-17T08:03:27.010Z,100841.78
2022-08-17T08:06:29.762Z,100845.25
2022-08-17T08:09:39.482Z,100841.19
2022-08-17T08:12:44.883Z,100846.34
2022-08-17T08:15:53.557Z,100842.34
2022-08-17T08:18:59.290Z,100849.56
2022-08-17T08:22:11.061Z,100858.22
2022-08-17T08:25:25.925Z,100847.88
2022-08-17T08:28:43.328Z,100857.69
2022-08-17T08:32:00.010Z,100856.53
2022-08-17T08:35:07.274Z,100862.69
2022-08-17T08:38:18.207Z,100864.81
2022-08-17T08:41:34.554Z,100861.47
2022-08-17T08:45:00.413Z,100860.75
2022-08-17T08:48:45.962Z,100866.31
2022-08-17T08:51:51.729Z,100876.28
2022-08-17T08:54:59.666Z,100860.44
2022-08-17T08:58:07.463Z,100877.38
2022-08-17T09:01:38.025Z,100869.13
2022-08-17T09:05:13.962Z,100878.38
2022-08-17T09:08:22.006Z,100869.72
2022-08-17T09:11:31.745Z,100865.03
2022-08-17T09:14:46.824Z,100866.88
2022-08-17T09:18:14.911Z,100864.38
2022-08-17T09:21:29.667Z,100866.16
2022-08-17T09:24:41.646Z,100870.41
2022-08-17T09:27:54.725Z,100884.06
2022-08-17T09:31:03.509Z,100878.88
2022-08-17T09:34:12.325Z,100869.59
2022-08-17T09:37:22.710Z,100883.72
2022-08-17T09:40:29.763Z,100891.91
2022-08-17T09:43:39.805Z,100879.66
2022-08-17T09:46:49.174Z,100870.22
2022-08-17T09:49:58.602Z,100871.16
2022-08-17T09:53:01.307Z,100877.19
2022-08-17T09:56:32.455Z,100873.22
2022-08-17T09:59:54.278Z,100870.50
2022-08-17T10:03:25.656Z,100870.06
2022-08-17T10:06:33.678Z,100872.63
2022-08-17T10:09:47.430Z,100870.97
2022-08-17T10:12:58.514Z,100866.28
2022-08-17T10:16:14.647Z,100861.69
2022-08-17T10:19:24.019Z,100870.28
2022-08-17T10:22:53.356Z,100876.38
2022-08-17T10:26:14.021Z,100873.16
2022-08-17T10:29:23.527Z,100879.22
2022-08-17T10:32:34.618Z,100875.94
2022-08-17T10:35:47.452Z,100867.56
2022-08-17T10:39:04.018Z,100865.03
2022-08-17T10:42:32.232Z,100863.31
2022-08-17T10:45:46.968Z,100868.09
2022-08-17T10:49:26.889Z,100855.81
2022-08-17T10:52:49.912Z,100852.97
2022-08-17T10:56:23.174Z,100855.94
2022-08-17T10:59:50.653Z,100847.06
2022-08-17T11:02:55.403Z,100850.59
2022-08-17T11:06:06.433Z,100846.72
2022-08-17T11:09:27.876Z,100849.50
2022-08-17T11:12:42.488Z,100854.44
2022-08-17T11:16:09.683Z,100851.72
2022-08-17T11:19:41.220Z,100861.94
2022-08-17T11:23:14.609Z,100850.34
2022-08-17T11:26:26.390Z,100840.41
2022-08-17T11:29:36.705Z,100839.03
2022-08-17T11:32:47.337Z,100836.06
2022-08-17T11:35:56.265Z,100833.25
2022-08-17T11:39:05.430Z,100839.31
2022-08-17T11:42:21.372Z,100837.78
2022-08-17T11:45:43.072Z,100826.94
2022-08-17T11:49:15.236Z,100834.81
2022-08-17T11:52:39.303Z,100835.88
2022-08-17T11:56:05.494Z,100833.63
2022-08-17T11:59:45.875Z,100833.75
2022-08-17T12:03:26.357Z,100823.16
2022-08-17T12:06:35.306Z,100825.41
2022-08-17T12:09:42.145Z,100820.84
2022-08-17T12:12:49.075Z,100826.78
2022-08-17T12:15:54.034Z,100821.47
2022-08-17T12:18:59.605Z,100823.22
2022-08-17T12:22:10.719Z,100821.28
2022-08-17T12:25:21.654Z,100830.72
2022-08-17T12:28:27.738Z,100827.66
2022-08-17T12:31:34.593Z,100832.28
2022-08-17T12:34:42.260Z,100826.25
2022-08-17T12:37:48.738Z,100826.28
2022-08-17T12:40:55.021Z,100824.97
2022-08-17T12:44:02.760Z,100816.81
2022-08-17T12:47:19.377Z,100822.22
2022-08-17T12:50:29.913Z,100822.28
2022-08-17T12:53:35.823Z,100816.06
2022-08-17T12:56:38.447Z,100812.22
2022-08-17T12:59:43.934Z,100808.59
2022-08-17T13:02:50.829Z,100807.31
2022-08-17T13:06:00.877Z,100811.78
2022-08-17T13:09:10.731Z,100797.59
2022-08-17T13:12:13.292Z,100796.59
2022-08-17T13:15:23.042Z,100786.41
2022-08-17T13:18:47.274Z,100790.75
2022-08-17T13:21:54.062Z,100782.78
2022-08-17T13:25:00.926Z,100786.34
2022-08-17T13:28:03.694Z,100787.72
2022-08-17T13:31:32.564Z,100781.25
2022-08-17T13:35:07.743Z,100777.94
2022-08-17T13:38:06.810Z,100774.56
2022-08-17T13:41:29.507Z,100770.25
2022-08-17T13:44:34.966Z,100764.53
2022-08-17T13:47:37.599Z,100763.97
2022-08-17T13:50:43.246Z,100767.50
2022-08-17T13:53:55.748Z,100769.38
2022-08-17T13:57:01.865Z,100769.53
2022-08-17T14:00:11.766Z,100767.59
2022-08-17T14:03:15.234Z,100758.72
2022-08-17T14:06:51.507Z,100762.69
2022-08-17T14:09:47.683Z,100760.69
2022-08-17T14:12:50.814Z,100753.53
2022-08-17T14:15:55.024Z,100761.25
2022-08-17T14:18:59.041Z,100749.28
2022-08-17T14:22:01.827Z,100758.53
2022-08-17T14:25:10.272Z,100762.88
2022-08-17T14:28:13.416Z,100759.94
2022-08-17T14:31:16.052Z,100761.63
2022-08-17T14:34:18.817Z,100759.84
2022-08-17T14:37:25.346Z,100757.78
2022-08-17T14:40:29.492Z,100765.69
2022-08-17T14:43:34.997Z,100757.88
2022-08-17T14:46:37.731Z,100753.63
2022-08-17T14:49:40.294Z,100746.53
2022-08-17T14:52:43.492Z,100753.25
2022-08-17T14:55:47.459Z,100746.75
2022-08-17T14:58:51.798Z,100756.00
2022-08-17T15:01:56.973Z,100746.47
2022-08-17T15:05:01.662Z,100743.94
2022-08-17T15:08:05.759Z,100736.97
2022-08-17T15:11:14.191Z,100736.47
2022-08-17T15:14:17.253Z,100732.31
2022-08-17T15:17:19.831Z,100733.84
2022-08-17T15:20:24.666Z,100726.00
2022-08-17T15:23:27.882Z,100718.81
2022-08-17T15:26:32.071Z,100720.53
2022-08-17T15:29:34.671Z,100716.47
2022-08-17T15:32:40.507Z,100718.25
2022-08-17T15:35:43.626Z,100715.03
2022-08-17T15:38:47.212Z,100721.25
2022-08-17T15:41:58.729Z,100722.75
2022-08-17T15:45:06.750Z,100711.38
2022-08-17T15:48:09.934Z,100706.56
2022-08-17T15:51:14.742Z,100704.66
2022-08-17T15:54:22.333Z,100695.81
2022-08-17T15:57:27.507Z,100700.44
2022-08-17T16:00:30.517Z,100699.50
2022-08-17T16:04:01.376Z,100689.97
2022-08-17T16:07:01.492Z,100694.84
2022-08-17T16:10:06.128Z,100698.81
2022-08-17T16:13:17.777Z,100696.13
2022-08-17T16:16:20.847Z,100694.19
2022-08-17T16:19:23.452Z,100694.97
2022-08-17T16:22:32.558Z,100694.69
2022-08-17T16:25:49.226Z,100685.06
2022-08-17T16:28:58.033Z,100687.06
2022-08-17T16:32:12.782Z,100688.81
2022-08-17T16:35:18.025Z,100679.78
2022-08-17T16:38:20.893Z,100681.44
2022-08-17T16:41:45.054Z,100673.66
2022-08-17T16:44:49.218Z,100667.72
2022-08-17T16:47:52.268Z,100668.09
2022-08-17T16:51:03.419Z,100662.63
2022-08-17T16:54:08.149Z,100667.13
2022-08-17T16:57:11.073Z,100670.38
2022-08-17T17:00:19.366Z,100674.66
2022-08-17T17:03:27.012Z,100672.19
2022-08-17T17:06:44.979Z,100663.91
2022-08-17T17:09:48.974Z,100674.44
2022-08-17T17:13:03.059Z,100667.00
2022-08-17T17:16:18.462Z,100672.34
2022-08-17T17:19:34.519Z,100663.66
2022-08-17T17:22:47.114Z,100665.38
2022-08-17T17:25:58.348Z,100669.44
2022-08-17T17:29:16.242Z,100668.78
2022-08-17T17:32:25.862Z,100666.59
2022-08-17T17:35:33.694Z,100668.63
2022-08-17T17:38:43.909Z,100674.25
2022-08-17T17:41:49.936Z,100679.69
2022-08-17T17:45:00.042Z,100692.28
2022-08-17T17:48:04.479Z,100697.34
2022-08-17T17:52:08.500Z,100684.44
2022-08-17T17:54:55.099Z,100678.00
2022-08-17T17:58:07.866Z,100678.66
2022-08-17T18:01:31.409Z,100678.00
2022-08-17T18:04:45.901Z,100677.66
2022-08-17T18:07:56.451Z,100677.06
2022-08-17T18:11:08.448Z,100680.66
2022-08-17T18:14:24.335Z,100684.72
2022-08-17T18:17:30.949Z,100757.78
2022-08-17T18:20:46.684Z,100779.19
2022-08-17T18:24:00.556Z,100791.75
2022-08-17T18:27:08.599Z,100791.75
2022-08-17T18:30:27.358Z,100840.56
2022-08-17T18:33:30.072Z,100905.69
2022-08-17T18:36:37.262Z,100887.34
2022-08-17T18:39:40.053Z,100900.34
2022-08-17T18:42:45.705Z,100908.53
2022-08-17T18:45:50.351Z,100909.41
2022-08-17T18:48:58.970Z,100893.50
2022-08-17T18:52:14.111Z,100877.16
2022-08-17T18:55:22.380Z,100838.66
2022-08-17T18:58:26.623Z,100817.22
2022-08-17T19:01:52.150Z,100796.81
2022-08-17T19:05:07.223Z,100792.16
2022-08-17T19:08:21.747Z,100781.34
2022-08-17T19:11:30.021Z,100790.06
2022-08-17T19:14:33.465Z,100785.56
2022-08-17T19:17:43.763Z,100798.13
2022-08-17T19:20:54.793Z,100794.13
2022-08-17T19:24:05.911Z,100796.22
2022-08-17T19:27:15.091Z,100808.88
2022-08-17T19:30:21.253Z,100803.66
2022-08-17T19:33:24.074Z,100799.47
2022-08-17T19:36:36.888Z,100796.06
2022-08-17T19:39:51.448Z,100780.78
2022-08-17T19:43:03.591Z,100774.94
2022-08-17T19:46:17.787Z,100770.28
2022-08-17T19:49:41.415Z,100774.31
2022-08-17T19:52:52.726Z,100783.03
2022-08-17T19:56:04.214Z,100773.63
2022-08-17T19:59:14.249Z,100772.72
2022-08-17T20:02:27.359Z,100766.50
2022-08-17T20:05:44.411Z,100762.66
2022-08-17T20:09:00.231Z,100769.47
2022-08-17T20:12:09.392Z,100777.13
2022-08-17T20:15:26.166Z,100764.00
2022-08-17T20:18:36.217Z,100763.88
2022-08-17T20:21:46.205Z,100761.72
2022-08-17T20:24:55.197Z,100771.53
2022-08-17T20:28:05.887Z,100762.53
2022-08-17T20:31:42.042Z,100756.56
2022-08-17T20:34:47.977Z,100765.28
2022-08-17T20:37:57.640Z,100756.41
2022-08-17T20:41:12.424Z,100748.03
2022-08-17T20:44:33.834Z,100740.09
2022-08-17T20:48:07.416Z,100744.47
2022-08-17T20:51:20.047Z,100765.31
2022-08-17T20:54:46.027Z,100778.72
2022-08-17T20:57:49.318Z,100780.28
2022-08-17T21:01:12.007Z,100763.16
2022-08-17T21:04:47.338Z,100759.22
2022-08-17T21:07:57.883Z,100756.06
2022-08-17T21:11:02.443Z,100756.75
2022-08-17T21:14:10.119Z,100752.44
2022-08-17T21:17:31.023Z,100755.25
2022-08-17T21:20:45.759Z,100755.31
2022-08-17T21:24:03.700Z,100760.00
2022-08-17T21:27:21.395Z,100761.91
2022-08-17T21:30:47.491Z,100760.06
2022-08-17T21:34:24.704Z,100761.72
2022-08-17T21:37:32.690Z,100751.66
2022-08-17T21:40:35.511Z,100761.00
2022-08-17T21:43:49.710Z,100754.59
2022-08-17T21:46:54.175Z,100760.84
2022-08-17T21:50:16.019Z,100767.72
2022-08-17T21:53:29.385Z,100762.78
2022-08-17T21:56:39.630Z,100762.63
2022-08-17T21:59:44.115Z,100765.94
2022-08-17T22:02:55.764Z,100762.84
2022-08-17T22:05:59.751Z,100759.16
2022-08-17T22:09:19.221Z,100754.34
2022-08-17T22:12:24.134Z,100762.00
2022-08-17T22:15:26.782Z,100751.38
2022-08-17T22:18:30.058Z,100755.44
2022-08-17T22:21:34.010Z,100752.81
2022-08-17T22:24:37.707Z,100754.06
2022-08-17T22:27:49.917Z,100748.53
2022-08-17T22:31:03.425Z,100747.38
2022-08-17T22:34:15.198Z,100747.47
2022-08-17T22:37:28.764Z,100741.75
2022-08-17T22:40:34.379Z,100733.41
2022-08-17T22:43:43.657Z,100729.06
2022-08-17T22:46:56.240Z,100739.00
2022-08-17T22:50:01.109Z,100730.69
2022-08-17T22:53:33.888Z,100740.84
2022-08-17T22:56:54.696Z,100729.72
2022-08-17T22:59:57.977Z,100736.69
2022-08-17T23:03:11.378Z,100746.31
2022-08-17T23:06:14.001Z,100752.28
2022-08-17T23:09:17.961Z,100746.78
2022-08-17T23:12:26.318Z,100749.19
2022-08-17T23:15:33.860Z,100740.06
2022-08-17T23:18:37.330Z,100750.19
2022-08-17T23:21:40.428Z,100743.09
2022-08-17T23:24:48.910Z,100745.03
2022-08-17T23:27:51.597Z,100744.31
2022-08-17T23:30:54.312Z,100742.34
2022-08-17T23:33:57.628Z,100742.88
2022-08-17T23:37:04.197Z,100759.97
2022-08-17T23:40:09.620Z,100759.72
2022-08-17T23:43:24.878Z,100756.91
2022-08-17T23:46:28.099Z,100750.00
2022-08-17T23:49:31.275Z,100743.78
2022-08-17T23:52:37.774Z,100743.56
2022-08-17T23:55:41.701Z,100746.34
2022-08-17T23:58:44.989Z,100748.06
